Terminal Aerodrome Forecast
Issued by NWS

Home | Current Version | Previous Version | Text Only | Print | Product List | Glossary On
Versions: 1 2 3 4 5 6 7 8 9 10 11 12
940
FTAK31 PAJN 232320
TAFAKT
TAF
PAKT 232320Z 2400/2424 33012KT P6SM BKN040
     FM240300 32010KT P6SM FEW040 FEW200
      AMD LTD TO CLD VIS AND WIND 2406/2415=

USA.gov is the U.S. government's official web portal to all federal, state and local government web resources and services.